Time;durP1;ratioP1;P1;durP2;ratioP2;P2;SDS_P1;SDS_P2;PMS_P1;PMS_P2;Temp;Humidity;BMP_temperature;BMP_pressure;BME280_temperature;BME280_humidity;BME280_pressure;Samples;Min_cycle;Max_cycle;Signal;HPM_P1;HPM_P2
2023/05/30 00:01:14;;;;;;;9.10;2.67;;;;;;;8.29;100.00;102436.22;6195892;23;20004;-79
2023/05/30 00:03:44;;;;;;;8.60;2.67;;;;;;;8.19;100.00;102432.56;6195747;23;20004;-78
2023/05/30 00:06:13;;;;;;;6.40;2.35;;;;;;;7.93;100.00;102413.97;6247821;22;20011;-78
2023/05/30 00:08:40;;;;;;;5.15;2.42;;;;;;;8.06;100.00;102443.34;6220782;23;20000;-79
2023/05/30 00:11:07;;;;;;;3.67;1.85;;;;;;;8.08;100.00;102432.53;6221118;23;20083;-78
2023/05/30 00:13:32;;;;;;;4.55;1.80;;;;;;;8.20;100.00;102433.41;6220822;23;20448;-78
2023/05/30 00:16:03;;;;;;;6.32;2.53;;;;;;;8.40;100.00;102426.53;6246162;23;20006;-79
2023/05/30 00:18:39;;;;;;;5.03;2.10;;;;;;;8.61;100.00;102422.13;6246188;23;20000;-78
2023/05/30 00:21:10;;;;;;;3.88;1.73;;;;;;;8.91;100.00;102429.53;6222612;23;20008;-79
2023/05/30 00:23:37;;;;;;;6.15;2.38;;;;;;;8.91;100.00;102416.13;6245985;23;20003;-79
2023/05/30 00:26:04;;;;;;;7.53;2.08;;;;;;;9.02;100.00;102417.94;6220677;23;20016;-79
2023/05/30 00:28:30;;;;;;;4.85;2.65;;;;;;;9.10;100.00;102425.38;6220373;23;20065;-79
2023/05/30 00:30:56;;;;;;;2.47;2.05;;;;;;;8.98;100.00;102408.44;6247129;22;20000;-78
2023/05/30 00:33:21;;;;;;;3.28;2.08;;;;;;;9.00;100.00;102406.50;6195644;23;20332;-78
2023/05/30 00:35:47;;;;;;;6.60;2.70;;;;;;;9.07;100.00;102420.25;6220469;23;20331;-78
2023/05/30 00:38:13;;;;;;;5.03;2.00;;;;;;;9.05;100.00;102419.53;6220557;23;20050;-81
2023/05/30 00:40:38;;;;;;;2.95;1.92;;;;;;;9.04;100.00;102424.03;6245964;23;20417;-79
2023/05/30 00:43:04;;;;;;;5.88;1.77;;;;;;;9.01;100.00;102417.09;6220491;23;20420;-78
2023/05/30 00:45:30;;;;;;;3.28;2.20;;;;;;;9.06;100.00;102424.78;6220509;23;20031;-79
2023/05/30 00:47:55;;;;;;;5.00;2.45;;;;;;;9.01;100.00;102429.66;6220654;23;20014;-80
2023/05/30 00:50:21;;;;;;;9.57;2.92;;;;;;;8.94;100.00;102436.50;6220041;23;20015;-78
2023/05/30 00:52:48;;;;;;;5.95;2.53;;;;;;;8.67;100.00;102424.31;6220330;23;20008;-78
2023/05/30 00:55:14;;;;;;;7.93;2.65;;;;;;;8.50;100.00;102438.22;6220318;23;20008;-79
2023/05/30 00:57:40;;;;;;;3.75;1.63;;;;;;;8.55;100.00;102436.91;6220092;23;20417;-80
2023/05/30 01:00:06;;;;;;;10.13;2.88;;;;;;;8.61;100.00;102419.47;6247011;22;20008;-78
2023/05/30 01:02:33;;;;;;;7.15;2.50;;;;;;;8.55;100.00;102431.53;6220041;23;20011;-79
2023/05/30 01:05:00;;;;;;;13.07;2.58;;;;;;;8.52;100.00;102415.69;6246530;23;20001;-80
2023/05/30 01:07:27;;;;;;;6.13;2.50;;;;;;;8.74;100.00;102440.78;6195073;23;20007;-80
2023/05/30 01:09:53;;;;;;;5.15;2.08;;;;;;;8.64;100.00;102411.16;6195209;23;20004;-79
2023/05/30 01:12:25;;;;;;;2.20;1.85;;;;;;;8.90;100.00;102437.72;6194930;23;20000;-79
2023/05/30 01:15:00;;;;;;;2.47;1.98;;;;;;;8.98;100.00;102432.59;6220160;23;20465;-79
2023/05/30 01:17:44;;;;;;;2.88;1.63;;;;;;;8.68;100.00;102376.91;6195085;23;20023;-79
2023/05/30 01:20:09;;;;;;;7.93;2.47;;;;;;;9.06;100.00;102435.50;6220352;23;20333;-79
2023/05/30 01:22:56;;;;;;;3.75;2.10;;;;;;;9.04;100.00;102450.88;6246581;23;20000;-79
2023/05/30 01:25:43;;;;;;;6.50;2.30;;;;;;;8.97;100.00;102444.28;6220021;23;20015;-79
2023/05/30 01:28:14;;;;;;;3.85;2.03;;;;;;;9.01;100.00;102451.97;6246885;23;20031;-79
2023/05/30 01:30:50;;;;;;;5.05;1.50;;;;;;;8.98;100.00;102452.22;6220045;23;20004;-79
2023/05/30 01:33:17;;;;;;;11.18;2.90;;;;;;;8.94;100.00;102456.13;6220021;23;20088;-79
2023/05/30 01:35:49;;;;;;;4.97;2.38;;;;;;;8.87;100.00;102468.34;6219734;23;20083;-80
2023/05/30 01:38:15;;;;;;;9.95;3.53;;;;;;;8.73;100.00;102461.41;6171242;23;20007;-80
2023/05/30 01:40:44;;;;;;;5.55;2.53;;;;;;;8.67;100.00;102463.69;6220217;23;20000;-78
2023/05/30 01:43:39;;;;;;;8.25;2.92;;;;;;;8.52;100.00;102465.75;6194898;23;20421;-79
2023/05/30 01:46:08;;;;;;;11.60;3.85;;;;;;;8.30;100.00;102474.59;6156407;23;20495;-79
2023/05/30 01:49:18;;;;;;;6.85;2.90;;;;;;;8.03;100.00;102477.56;6194025;23;20015;-79
2023/05/30 01:51:50;;;;;;;4.32;2.60;;;;;;;7.79;100.00;102459.72;6240332;23;20000;-81
2023/05/30 01:54:18;;;;;;;7.80;2.75;;;;;;;7.84;100.00;102464.72;6220060;23;20079;-81
2023/05/30 01:56:47;;;;;;;7.32;2.20;;;;;;;7.87;100.00;102464.50;6220108;23;20000;-80
2023/05/30 01:59:14;;;;;;;5.43;2.65;;;;;;;8.04;100.00;102463.19;6194650;23;20035;-80
2023/05/30 02:01:41;;;;;;;2.22;1.83;;;;;;;8.23;100.00;102468.00;6194304;23;20024;-79
2023/05/30 02:04:07;;;;;;;3.75;2.05;;;;;;;8.23;100.00;102447.44;6170105;23;20000;-80
2023/05/30 02:06:32;;;;;;;6.03;2.75;;;;;;;8.27;100.00;102442.69;6219734;23;20301;-80
2023/05/30 02:08:58;;;;;;;5.05;2.47;;;;;;;8.34;100.00;102447.44;6218297;23;20306;-80
2023/05/30 02:11:23;;;;;;;5.55;2.60;;;;;;;8.43;100.00;102455.78;6219942;23;20004;-80
2023/05/30 02:13:49;;;;;;;6.25;3.45;;;;;;;8.43;100.00;102456.63;6194647;23;20008;-80
2023/05/30 02:16:18;;;;;;;6.20;2.75;;;;;;;8.33;100.00;102461.78;6169852;23;20328;-79
2023/05/30 02:18:45;;;;;;;7.65;3.38;;;;;;;8.22;100.00;102463.63;6194469;23;20000;-80
2023/05/30 02:21:10;;;;;;;6.38;2.90;;;;;;;8.15;100.00;102471.28;6170041;23;20004;-79
2023/05/30 02:23:36;;;;;;;10.07;3.05;;;;;;;8.01;100.00;102466.97;6246397;23;20000;-80
2023/05/30 02:26:02;;;;;;;5.70;2.67;;;;;;;7.88;100.00;102476.91;6219679;23;20427;-78
2023/05/30 02:28:29;;;;;;;8.85;3.00;;;;;;;7.66;100.00;102470.50;6169922;23;20012;-79
2023/05/30 02:30:55;;;;;;;10.82;3.53;;;;;;;7.42;100.00;102465.16;6219576;23;20009;-79
2023/05/30 02:33:21;;;;;;;8.85;2.90;;;;;;;7.22;100.00;102471.09;6219681;23;20054;-79
2023/05/30 02:35:46;;;;;;;5.22;2.35;;;;;;;6.98;100.00;102471.91;6169718;23;20083;-78
2023/05/30 02:38:12;;;;;;;6.40;2.97;;;;;;;6.85;100.00;102467.56;6219326;23;20070;-78
2023/05/30 02:40:37;;;;;;;7.43;2.40;;;;;;;6.73;100.00;102475.50;6245919;23;20111;-78
2023/05/30 02:43:03;;;;;;;6.00;2.65;;;;;;;6.68;100.00;102476.78;6169496;23;20086;-82
2023/05/30 02:45:28;;;;;;;7.28;2.75;;;;;;;6.62;100.00;102469.22;6193931;23;20474;-80
2023/05/30 02:47:54;;;;;;;9.05;3.03;;;;;;;6.70;100.00;102461.50;6246068;23;20007;-80
2023/05/30 02:50:20;;;;;;;6.25;2.83;;;;;;;6.80;100.00;102468.75;6194083;23;20011;-80
2023/05/30 02:52:46;;;;;;;10.38;3.00;;;;;;;6.87;100.00;102469.16;6194402;23;20012;-79
2023/05/30 02:55:12;;;;;;;9.10;2.95;;;;;;;6.87;100.00;102471.81;6194663;23;20409;-78
2023/05/30 02:57:38;;;;;;;9.05;3.83;;;;;;;6.97;100.00;102470.22;6219434;23;20014;-79
2023/05/30 03:00:05;;;;;;;5.47;2.28;;;;;;;6.95;100.00;102469.44;6226732;23;20086;-79
2023/05/30 03:02:31;;;;;;;8.98;3.33;;;;;;;7.05;100.00;102478.53;6219580;23;20004;-80
2023/05/30 03:04:57;;;;;;;5.43;2.88;;;;;;;7.01;100.00;102471.72;6194384;23;20019;-79
2023/05/30 03:07:25;;;;;;;6.32;2.88;;;;;;;7.10;100.00;102482.72;6244555;23;20012;-79
2023/05/30 03:09:50;;;;;;;5.30;2.95;;;;;;;7.12;100.00;102480.75;6246237;23;20000;-79
2023/05/30 03:12:16;;;;;;;5.68;2.60;;;;;;;7.07;100.00;102475.75;6194757;23;20014;-79
2023/05/30 03:14:42;;;;;;;7.32;3.05;;;;;;;7.11;100.00;102485.25;6196298;23;20328;-79
2023/05/30 03:17:08;;;;;;;7.30;2.97;;;;;;;6.97;100.00;102480.06;6246906;23;20011;-78
2023/05/30 03:19:33;;;;;;;5.65;3.30;;;;;;;6.88;100.00;102481.56;6246695;23;20038;-79
2023/05/30 03:21:59;;;;;;;4.10;2.03;;;;;;;6.85;100.00;102495.13;6196260;23;20004;-80
2023/05/30 03:24:26;;;;;;;6.35;3.03;;;;;;;6.91;100.00;102494.72;6221109;23;20001;-79
2023/05/30 03:26:52;;;;;;;10.35;2.97;;;;;;;6.94;100.00;102478.47;6246421;23;20008;-80
2023/05/30 03:29:18;;;;;;;8.32;2.53;;;;;;;6.98;100.00;102465.72;6246656;23;20178;-80
2023/05/30 03:31:44;;;;;;;7.22;2.45;;;;;;;7.20;100.00;102491.78;6221104;23;20050;-78
2023/05/30 03:34:09;;;;;;;3.65;2.00;;;;;;;7.13;100.00;102463.75;6246391;23;20336;-78
2023/05/30 03:36:35;;;;;;;2.33;1.60;;;;;;;7.27;100.00;102482.31;6246156;23;20364;-78
2023/05/30 03:39:01;;;;;;;5.53;2.80;;;;;;;7.46;100.00;102498.75;6246260;23;20027;-79
2023/05/30 03:41:26;;;;;;;7.30;2.38;;;;;;;7.52;100.00;102496.59;6246501;23;20027;-80
2023/05/30 03:43:52;;;;;;;7.40;3.00;;;;;;;7.55;100.00;102497.22;6221112;23;20603;-78
2023/05/30 03:46:19;;;;;;;8.40;3.45;;;;;;;7.59;100.00;102496.00;6246015;23;20027;-79
2023/05/30 03:48:46;;;;;;;7.75;2.95;;;;;;;7.58;100.00;102480.91;6246571;23;20008;-79
2023/05/30 03:51:12;;;;;;;4.75;2.40;;;;;;;7.73;100.00;102497.69;6195980;23;20079;-78
2023/05/30 03:53:37;;;;;;;7.88;3.15;;;;;;;7.70;100.00;102498.75;6247785;22;20416;-79
2023/05/30 03:56:04;;;;;;;8.23;2.38;;;;;;;7.67;100.00;102492.75;6247516;22;20016;-78
2023/05/30 03:58:29;;;;;;;5.65;2.92;;;;;;;7.61;100.00;102487.88;6220973;23;20333;-78
2023/05/30 04:00:55;;;;;;;3.28;1.52;;;;;;;7.75;100.00;102492.19;6247262;23;20428;-78
2023/05/30 04:03:20;;;;;;;9.05;3.33;;;;;;;7.88;100.00;102492.97;6247454;23;20015;-79
2023/05/30 04:05:47;;;;;;;6.47;2.63;;;;;;;7.95;100.00;102493.38;6195792;23;20482;-78
2023/05/30 04:08:13;;;;;;;10.68;3.35;;;;;;;8.03;100.00;102507.03;6220883;23;20039;-78
2023/05/30 04:10:39;;;;;;;4.40;2.40;;;;;;;8.03;100.00;102496.31;6170958;23;20004;-78
2023/05/30 04:13:05;;;;;;;5.85;2.22;;;;;;;8.01;100.00;102493.75;6247418;23;20007;-78
2023/05/30 04:15:31;;;;;;;7.43;2.40;;;;;;;8.06;100.00;102496.94;6247079;23;20007;-78
2023/05/30 04:17:57;;;;;;;13.02;2.90;;;;;;;8.06;100.00;102493.41;6195383;23;20039;-78
2023/05/30 04:20:24;;;;;;;8.77;3.53;;;;;;;8.15;100.00;102511.47;6220938;23;20058;-79
2023/05/30 04:22:50;;;;;;;2.28;1.80;;;;;;;8.07;100.00;102520.09;6170831;23;20032;-78
2023/05/30 04:25:17;;;;;;;4.15;2.45;;;;;;;7.95;100.00;102509.44;6219661;23;20007;-78
2023/05/30 04:27:43;;;;;;;4.50;2.45;;;;;;;8.07;100.00;102524.56;6195683;23;19996;-78
2023/05/30 04:30:10;;;;;;;4.93;2.33;;;;;;;8.12;100.00;102511.69;6246988;23;20019;-80
2023/05/30 04:32:36;;;;;;;5.10;2.42;;;;;;;8.16;100.00;102510.50;6220732;23;20498;-78
2023/05/30 04:35:03;;;;;;;3.33;1.95;;;;;;;8.06;100.00;102498.78;6195714;23;20004;-81
2023/05/30 04:37:29;;;;;;;4.30;2.08;;;;;;;8.13;100.00;102513.41;6195466;23;20008;-79
2023/05/30 04:39:58;;;;;;;5.30;2.60;;;;;;;8.00;100.00;102512.63;6220483;23;20416;-80
2023/05/30 04:42:27;;;;;;;5.20;2.88;;;;;;;7.80;100.00;102509.63;6221045;23;20010;-80
2023/05/30 04:44:54;;;;;;;5.70;2.85;;;;;;;7.65;100.00;102513.47;6220093;23;20012;-80
2023/05/30 04:47:23;;;;;;;7.75;2.88;;;;;;;7.50;100.00;102504.72;6195223;23;20421;-79
2023/05/30 04:49:53;;;;;;;9.60;2.97;;;;;;;7.58;100.00;102520.22;6171145;23;20007;-79
2023/05/30 04:52:20;;;;;;;3.33;2.10;;;;;;;7.62;100.00;102505.63;6195573;23;20011;-78
2023/05/30 04:54:45;;;;;;;7.78;3.03;;;;;;;7.90;100.00;102524.03;6170391;23;20046;-80
2023/05/30 04:57:12;;;;;;;8.07;4.22;;;;;;;8.05;100.00;102507.78;6219983;23;20004;-79
2023/05/30 04:59:39;;;;;;;7.95;3.15;;;;;;;8.22;100.00;102485.06;6197102;23;20464;-78
2023/05/30 05:02:05;;;;;;;4.40;2.85;;;;;;;8.61;100.00;102502.59;6245463;23;20061;-79
2023/05/30 05:04:30;;;;;;;6.65;2.95;;;;;;;8.65;100.00;102492.47;6245153;23;20083;-79
2023/05/30 05:06:57;;;;;;;5.55;3.08;;;;;;;8.82;100.00;102504.56;6220216;23;20004;-79
2023/05/30 05:09:24;;;;;;;7.13;4.25;;;;;;;9.12;100.00;102518.19;6195238;23;20011;-79
2023/05/30 05:11:50;;;;;;;4.70;3.33;;;;;;;9.77;100.00;102518.31;6220083;23;20040;-78
2023/05/30 05:14:16;;;;;;;5.97;3.13;;;;;;;10.54;100.00;102510.00;6194820;23;20099;-79
2023/05/30 05:16:42;;;;;;;4.88;2.95;;;;;;;11.18;100.00;102511.56;6244994;23;20062;-79
2023/05/30 05:19:07;;;;;;;4.97;2.55;;;;;;;11.05;100.00;102501.03;6219976;23;20332;-79
2023/05/30 05:21:33;;;;;;;6.63;3.10;;;;;;;10.96;100.00;102512.63;6244880;23;20008;-80
2023/05/30 05:23:58;;;;;;;4.78;2.08;;;;;;;11.45;100.00;102511.75;6219930;23;20011;-79
2023/05/30 05:26:24;;;;;;;7.60;3.15;;;;;;;12.10;100.00;102514.84;6220038;23;20361;-79
2023/05/30 05:28:51;;;;;;;9.07;2.70;;;;;;;12.60;100.00;102523.72;6251214;23;20035;-79
2023/05/30 05:31:17;;;;;;;6.60;2.78;;;;;;;12.48;99.38;102523.00;6195496;23;20016;-80
2023/05/30 05:33:43;;;;;;;8.45;3.40;;;;;;;11.62;100.00;102510.25;6245121;23;20401;-80
2023/05/30 05:36:08;;;;;;;6.88;2.28;;;;;;;11.11;100.00;102515.78;6219666;23;20012;-79
2023/05/30 05:38:34;;;;;;;6.80;2.95;;;;;;;10.96;100.00;102516.16;6246656;22;20042;-79
2023/05/30 05:41:00;;;;;;;4.30;2.58;;;;;;;11.60;100.00;102524.84;6244986;23;20000;-78
2023/05/30 05:43:25;;;;;;;3.97;2.35;;;;;;;12.69;99.91;102525.53;6245203;23;20000;-78
2023/05/30 05:45:51;;;;;;;5.70;3.08;;;;;;;13.62;94.23;102524.53;6246687;22;20004;-78
2023/05/30 05:48:17;;;;;;;6.22;3.10;;;;;;;14.29;88.52;102526.84;6219820;23;20010;-79
2023/05/30 05:50:43;;;;;;;5.05;3.08;;;;;;;14.77;84.30;102520.09;6219864;23;20012;-79
2023/05/30 05:53:09;;;;;;;7.70;2.40;;;;;;;15.01;82.86;102515.81;6244844;23;20008;-79
2023/05/30 05:55:34;;;;;;;5.32;3.42;;;;;;;15.35;78.58;102530.19;6219655;23;20035;-78
2023/05/30 05:58:00;;;;;;;7.20;3.83;;;;;;;15.74;76.34;102537.75;6219838;23;20000;-80
2023/05/30 06:00:26;;;;;;;9.13;3.35;;;;;;;15.98;76.17;102542.41;6245041;23;20007;-79
2023/05/30 06:02:52;;;;;;;5.43;3.65;;;;;;;16.23;72.11;102532.38;6244686;23;20031;-79
2023/05/30 06:05:18;;;;;;;7.38;2.92;;;;;;;16.33;69.77;102534.09;6244879;23;20004;-79
2023/05/30 06:07:43;;;;;;;9.73;3.55;;;;;;;16.46;69.29;102534.44;6219700;23;20008;-79
2023/05/30 06:10:09;;;;;;;8.10;2.60;;;;;;;16.74;67.40;102542.19;6219865;23;20336;-78
2023/05/30 06:12:35;;;;;;;4.57;1.88;;;;;;;17.03;66.44;102544.34;6244580;23;20379;-79
2023/05/30 06:15:01;;;;;;;6.13;3.33;;;;;;;17.18;66.68;102545.31;6219800;23;20012;-79
2023/05/30 06:17:28;;;;;;;4.45;2.70;;;;;;;17.51;64.88;102551.41;6219712;23;20045;-79
2023/05/30 06:19:54;;;;;;;4.95;2.22;;;;;;;17.69;64.33;102553.88;6244754;23;20008;-79
2023/05/30 06:22:20;;;;;;;5.72;2.28;;;;;;;17.99;60.00;102557.63;6244592;23;20090;-79
2023/05/30 06:24:46;;;;;;;5.63;3.03;;;;;;;18.01;62.19;102547.41;6244861;23;20004;-78
2023/05/30 06:27:12;;;;;;;6.13;2.50;;;;;;;18.33;59.76;102537.25;6219689;23;20008;-79
2023/05/30 06:29:38;;;;;;;6.82;2.40;;;;;;;18.52;59.07;102560.41;6219570;23;20384;-78
2023/05/30 06:32:04;;;;;;;9.80;2.90;;;;;;;18.70;58.13;102561.97;6244842;23;20065;-78
2023/05/30 06:34:30;;;;;;;6.25;2.97;;;;;;;18.61;56.77;102559.31;6246369;22;20004;-78
2023/05/30 06:36:55;;;;;;;4.05;2.53;;;;;;;18.75;56.41;102565.84;6245084;23;20008;-78
2023/05/30 06:39:21;;;;;;;6.53;2.90;;;;;;;18.80;59.68;102548.94;6219265;23;20014;-78
2023/05/30 06:41:47;;;;;;;7.40;2.95;;;;;;;19.39;56.84;102550.78;6244611;23;20008;-79
2023/05/30 06:44:12;;;;;;;7.95;2.97;;;;;;;19.81;54.96;102566.44;6244697;23;20000;-79
2023/05/30 06:46:38;;;;;;;9.02;3.05;;;;;;;19.97;53.85;102559.88;6244348;23;20072;-78
2023/05/30 06:49:04;;;;;;;7.90;2.78;;;;;;;20.18;54.48;102562.59;6246506;23;20012;-78
2023/05/30 06:51:30;;;;;;;6.90;3.40;;;;;;;20.39;53.14;102563.63;6246547;23;20054;-78
2023/05/30 06:53:57;;;;;;;6.07;2.83;;;;;;;20.67;52.04;102557.34;6246361;23;20032;-79
2023/05/30 06:56:23;;;;;;;9.02;2.83;;;;;;;21.02;50.42;102571.91;6221622;23;20152;-80
2023/05/30 06:58:49;;;;;;;6.47;3.08;;;;;;;21.06;48.64;102546.69;6221011;23;20000;-78
2023/05/30 07:01:15;;;;;;;5.05;2.70;;;;;;;21.26;48.39;102554.13;6221578;23;20004;-79
2023/05/30 07:03:40;;;;;;;11.60;3.22;;;;;;;21.20;48.95;102563.16;6247989;22;20000;-80
2023/05/30 07:06:06;;;;;;;7.93;2.78;;;;;;;21.31;47.45;102568.06;6246681;23;20004;-78
2023/05/30 07:08:32;;;;;;;7.53;3.00;;;;;;;21.21;47.91;102560.22;6246760;23;20417;-80
2023/05/30 07:10:57;;;;;;;5.85;3.20;;;;;;;21.47;48.31;102559.53;6221475;23;19997;-79
2023/05/30 07:13:23;;;;;;;8.40;3.20;;;;;;;21.83;47.76;102557.50;6221318;23;20007;-79
2023/05/30 07:15:48;;;;;;;7.45;2.85;;;;;;;22.09;46.04;102562.19;6221416;23;20008;-79
2023/05/30 07:18:14;;;;;;;5.78;2.60;;;;;;;22.26;45.81;102563.53;6246354;23;20341;-78
2023/05/30 07:20:40;;;;;;;6.72;2.78;;;;;;;22.69;45.56;102564.97;6246540;23;20022;-79
2023/05/30 07:23:06;;;;;;;9.20;3.10;;;;;;;22.77;44.25;102551.03;6248094;22;20081;-79
2023/05/30 07:25:31;;;;;;;7.88;3.00;;;;;;;22.82;45.34;102565.81;6248286;22;20000;-79
2023/05/30 07:27:57;;;;;;;8.60;3.70;;;;;;;23.10;43.86;102561.97;6246546;23;20362;-79
2023/05/30 07:30:22;;;;;;;8.00;3.35;;;;;;;22.89;43.64;102564.94;6246504;23;20008;-78
2023/05/30 07:32:49;;;;;;;9.35;3.42;;;;;;;22.86;44.19;102549.75;6221147;23;20093;-79
2023/05/30 07:35:15;;;;;;;6.05;2.60;;;;;;;23.04;43.18;102557.34;6221017;23;20004;-78
2023/05/30 07:37:40;;;;;;;5.53;2.60;;;;;;;23.04;42.56;102562.81;6248041;22;20000;-79
2023/05/30 07:40:07;;;;;;;4.20;2.63;;;;;;;23.01;42.28;102555.88;6221331;23;20102;-78
2023/05/30 07:42:33;;;;;;;7.72;2.72;;;;;;;23.32;43.54;102551.56;6221280;23;20004;-79
2023/05/30 07:44:59;;;;;;;7.90;3.17;;;;;;;23.76;43.68;102555.34;6221080;23;20012;-78
2023/05/30 07:47:25;;;;;;;8.63;3.15;;;;;;;24.03;42.16;102555.22;6246232;23;20004;-78
2023/05/30 07:49:50;;;;;;;6.38;2.88;;;;;;;24.35;41.63;102547.75;6247932;23;20024;-78
2023/05/30 07:52:16;;;;;;;6.40;2.40;;;;;;;24.46;40.17;102568.22;6195904;23;20079;-78
2023/05/30 07:54:42;;;;;;;7.88;3.10;;;;;;;24.51;40.24;102562.88;6246428;23;20035;-79
2023/05/30 07:57:12;;;;;;;5.53;2.42;;;;;;;24.64;39.81;102567.44;6246280;23;20454;-78
2023/05/30 07:59:38;;;;;;;7.50;3.03;;;;;;;24.61;39.52;102573.34;6246285;23;20012;-78
2023/05/30 08:02:03;;;;;;;7.32;3.15;;;;;;;24.73;39.51;102577.06;6246325;23;20498;-79
2023/05/30 08:04:29;;;;;;;6.55;2.70;;;;;;;24.93;38.73;102563.94;6246192;23;20412;-78
2023/05/30 08:06:54;;;;;;;9.00;3.03;;;;;;;25.26;37.91;102561.91;6219852;23;20001;-79
2023/05/30 08:09:20;;;;;;;8.00;2.85;;;;;;;25.31;37.82;102562.91;6195789;23;20004;-78
2023/05/30 08:11:46;;;;;;;6.00;2.53;;;;;;;25.66;38.13;102563.06;6245940;23;20050;-78
2023/05/30 08:14:11;;;;;;;6.28;3.05;;;;;;;26.16;36.71;102569.38;6246042;23;20065;-78
2023/05/30 08:16:39;;;;;;;6.25;3.08;;;;;;;26.03;36.50;102570.41;6245736;23;20008;-78
2023/05/30 08:19:05;;;;;;;8.15;3.20;;;;;;;26.31;37.11;102570.59;6245875;23;20421;-78
2023/05/30 08:21:32;;;;;;;9.77;3.40;;;;;;;26.65;36.79;102557.09;6246169;23;20051;-78
2023/05/30 08:23:58;;;;;;;7.20;3.00;;;;;;;27.22;33.91;102572.16;6220919;23;20102;-78
2023/05/30 08:26:24;;;;;;;9.85;2.75;;;;;;;27.17;35.22;102570.13;6220632;23;20012;-78
2023/05/30 08:28:51;;;;;;;5.72;3.08;;;;;;;27.34;34.67;102560.00;6246069;23;20004;-78
2023/05/30 08:31:19;;;;;;;9.75;2.90;;;;;;;28.03;33.46;102576.56;6220693;23;20452;-77
2023/05/30 08:33:45;;;;;;;7.50;3.00;;;;;;;28.53;31.96;102576.84;6221288;23;20020;-78
2023/05/30 08:36:10;;;;;;;3.63;2.55;;;;;;;28.45;32.05;102583.66;6245831;23;20011;-78
2023/05/30 08:38:36;;;;;;;4.93;2.45;;;;;;;28.40;32.18;102578.00;6246113;23;20000;-79
2023/05/30 08:41:02;;;;;;;6.03;3.17;;;;;;;28.43;31.67;102572.81;6245513;23;20000;-78
2023/05/30 08:43:27;;;;;;;5.22;2.78;;;;;;;28.03;32.97;102570.19;6245849;23;20332;-78
2023/05/30 08:45:55;;;;;;;5.85;2.30;;;;;;;28.12;31.39;102573.38;6245791;23;20460;-78
2023/05/30 08:48:23;;;;;;;6.80;2.65;;;;;;;28.00;31.92;102568.75;6245772;23;20000;-80
2023/05/30 08:50:50;;;;;;;7.30;2.85;;;;;;;27.94;31.92;102564.22;6195399;23;20015;-77
2023/05/30 08:53:22;;;;;;;6.10;2.88;;;;;;;27.88;33.03;102567.16;6220493;23;20428;-77
2023/05/30 08:56:10;;;;;;;6.80;2.83;;;;;;;28.11;32.49;102571.72;6220238;23;20012;-79
2023/05/30 08:58:39;;;;;;;5.00;3.08;;;;;;;28.08;31.78;102563.88;6220441;23;20075;-79
2023/05/30 09:01:05;;;;;;;6.95;2.60;;;;;;;28.03;32.03;102559.97;6220841;23;20011;-79
2023/05/30 09:03:33;;;;;;;6.88;2.63;;;;;;;28.21;32.97;102556.13;6219713;23;20004;-79
2023/05/30 09:05:58;;;;;;;6.53;2.72;;;;;;;28.65;31.43;102533.31;6195095;23;20035;-78
2023/05/30 09:08:27;;;;;;;5.78;2.95;;;;;;;29.08;29.93;102553.84;6245266;23;20004;-78
2023/05/30 09:10:54;;;;;;;5.65;2.70;;;;;;;29.31;30.91;102556.34;6220408;23;20008;-78
2023/05/30 09:13:21;;;;;;;6.75;3.05;;;;;;;29.78;30.79;102555.81;6195112;23;20000;-79
2023/05/30 09:15:46;;;;;;;6.40;3.00;;;;;;;29.85;29.46;102538.97;6220282;23;20000;-78
2023/05/30 09:18:12;;;;;;;3.80;2.15;;;;;;;29.96;29.84;102545.44;6245121;23;20011;-79
2023/05/30 09:20:39;;;;;;;5.72;2.75;;;;;;;29.94;29.45;102536.53;6220167;23;20417;-78
2023/05/30 09:23:05;;;;;;;11.45;3.42;;;;;;;30.01;29.76;102540.78;6245585;23;20034;-78
2023/05/30 09:25:42;;;;;;;5.78;2.78;;;;;;;29.91;30.02;102531.53;6195158;23;20417;-78
2023/05/30 09:28:08;;;;;;;7.85;3.42;;;;;;;29.91;30.20;102532.34;6245259;23;20008;-79
2023/05/30 09:30:34;;;;;;;6.43;2.85;;;;;;;29.92;30.00;102536.78;6219971;23;20015;-78
2023/05/30 09:33:03;;;;;;;5.53;2.70;;;;;;;29.84;29.04;102534.50;6245150;23;20004;-78
2023/05/30 09:35:29;;;;;;;6.78;2.30;;;;;;;29.61;30.67;102516.22;6194539;23;20020;-78
2023/05/30 09:37:55;;;;;;;3.80;2.38;;;;;;;29.87;29.37;102524.81;6245009;23;20007;-78
2023/05/30 09:40:23;;;;;;;6.28;3.13;;;;;;;29.72;28.82;102540.22;6219728;23;20078;-78
2023/05/30 09:42:53;;;;;;;6.90;3.08;;;;;;;29.72;29.85;102537.44;6194945;23;20421;-78
2023/05/30 09:45:23;;;;;;;3.88;2.00;;;;;;;29.93;28.09;102523.75;6194669;23;20448;-78
2023/05/30 09:47:50;;;;;;;4.25;2.35;;;;;;;29.64;28.46;102520.41;6219930;23;20341;-78
2023/05/30 09:50:19;;;;;;;6.45;2.80;;;;;;;29.24;29.68;102521.63;6246647;22;20000;-79
2023/05/30 09:52:45;;;;;;;4.75;2.35;;;;;;;29.35;29.65;102527.03;6244898;23;20000;-78
2023/05/30 09:55:15;;;;;;;4.90;2.50;;;;;;;29.50;29.39;102506.97;6244810;23;20098;-78
2023/05/30 09:57:45;;;;;;;5.40;2.83;;;;;;;29.53;28.79;102536.09;6243792;23;20087;-78
2023/05/30 10:00:15;;;;;;;7.10;3.25;;;;;;;29.31;28.40;102520.34;6169565;23;20012;-78
2023/05/30 10:02:52;;;;;;;6.65;2.85;;;;;;;29.12;29.44;102530.91;6220210;23;20083;-78
2023/05/30 10:05:20;;;;;;;4.93;2.83;;;;;;;29.06;29.33;102529.19;6219684;23;20058;-78
2023/05/30 10:07:53;;;;;;;4.50;2.80;;;;;;;28.84;29.29;102537.44;6219788;23;20008;-77
2023/05/30 10:10:20;;;;;;;5.90;2.78;;;;;;;28.76;29.41;102537.06;6194447;23;20095;-78
2023/05/30 10:12:51;;;;;;;7.45;2.95;;;;;;;28.54;29.70;102534.25;6244534;23;20074;-78
2023/05/30 10:15:19;;;;;;;5.45;3.17;;;;;;;28.40;31.19;102526.28;6244461;23;20087;-79
2023/05/30 10:18:10;;;;;;;8.73;3.08;;;;;;;28.89;30.10;102545.81;6220076;23;20011;-79
2023/05/30 10:20:43;;;;;;;6.05;3.13;;;;;;;29.17;29.82;102546.78;6219614;23;20007;-78
2023/05/30 10:23:10;;;;;;;6.88;3.05;;;;;;;29.48;30.71;102550.75;6245833;22;20492;-77
2023/05/30 10:25:36;;;;;;;5.55;2.90;;;;;;;29.73;28.81;102539.13;6244624;23;20042;-77
2023/05/30 10:28:03;;;;;;;5.03;2.95;;;;;;;29.25;29.94;102535.25;6194696;23;20429;-77
2023/05/30 10:30:31;;;;;;;5.78;2.75;;;;;;;29.22;30.31;102535.75;6194254;23;20004;-78
2023/05/30 10:33:07;;;;;;;8.20;2.50;;;;;;;29.21;29.83;102544.31;6219462;23;20459;-78
2023/05/30 10:35:33;;;;;;;5.47;2.78;;;;;;;28.83;30.90;102544.09;6219233;23;20008;-78
2023/05/30 10:38:00;;;;;;;5.32;3.58;;;;;;;28.93;31.24;102552.53;6244729;23;20450;-78
2023/05/30 10:40:51;;;;;;;5.03;3.17;;;;;;;28.80;31.86;102519.69;6194417;23;20042;-79
2023/05/30 10:43:59;;;;;;;8.40;3.35;;;;;;;29.18;31.90;102548.44;6244965;23;20004;-77
2023/05/30 10:46:36;;;;;;;8.82;3.40;;;;;;;28.97;31.71;102527.09;6241406;23;20012;-78
2023/05/30 10:49:06;;;;;;;6.63;3.15;;;;;;;29.09;32.60;102525.91;6219366;23;20008;-78
2023/05/30 10:52:01;;;;;;;8.93;3.45;;;;;;;29.91;31.34;102551.78;6219667;23;20066;-78
2023/05/30 10:54:30;;;;;;;7.18;2.92;;;;;;;30.62;28.91;102545.16;6244584;23;20007;-79
2023/05/30 10:56:56;;;;;;;4.82;3.20;;;;;;;30.67;27.93;102543.22;6194191;23;20099;-78
2023/05/30 10:59:23;;;;;;;6.57;3.58;;;;;;;30.55;28.88;102545.38;6219220;23;20364;-78
2023/05/30 11:02:05;;;;;;;6.93;3.05;;;;;;;31.00;29.43;102532.88;6194702;23;20004;-79
2023/05/30 11:04:34;;;;;;;8.45;3.35;;;;;;;31.11;28.38;102528.19;6169652;23;20011;-78
2023/05/30 11:07:03;;;;;;;7.68;3.33;;;;;;;30.88;29.52;102529.47;6194576;23;20003;-78
2023/05/30 11:09:28;;;;;;;5.07;3.25;;;;;;;31.43;30.57;102529.97;6194370;23;20043;-78
2023/05/30 11:11:58;;;;;;;8.60;3.00;;;;;;;31.98;27.96;102526.47;6194194;23;20004;-79
2023/05/30 11:14:29;;;;;;;7.53;3.13;;;;;;;31.82;26.86;102523.94;6194269;23;20012;-79
2023/05/30 11:16:56;;;;;;;7.47;3.03;;;;;;;31.72;27.50;102524.75;6194394;23;20004;-79
2023/05/30 11:19:26;;;;;;;3.70;2.55;;;;;;;31.85;26.48;102521.44;6194145;23;20000;-79
2023/05/30 11:22:00;;;;;;;4.35;2.63;;;;;;;31.72;27.08;102517.25;6194283;23;20543;-78
2023/05/30 11:24:27;;;;;;;7.13;3.47;;;;;;;31.79;28.00;102525.31;6194202;23;20000;-79
2023/05/30 11:26:57;;;;;;;5.80;2.45;;;;;;;32.09;26.29;102532.88;6169501;23;20011;-79